createdAt,value
2018-10-07T00:01:10.497Z,15.90
2018-10-07T00:03:43.048Z,15.90
2018-10-07T00:06:16.707Z,15.90
2018-10-07T00:08:48.607Z,15.90
2018-10-07T00:11:21.181Z,15.80
2018-10-07T00:13:53.457Z,15.80
2018-10-07T00:16:25.588Z,15.80
2018-10-07T00:18:57.950Z,15.80
2018-10-07T00:21:32.777Z,15.80
2018-10-07T00:24:05.667Z,15.80
2018-10-07T00:26:37.737Z,15.80
2018-10-07T00:29:12.068Z,15.80
2018-10-07T00:31:50.287Z,15.80
2018-10-07T00:34:27.167Z,15.80
2018-10-07T00:37:06.598Z,15.80
2018-10-07T00:42:50.498Z,15.70
2018-10-07T00:45:25.108Z,15.70
2018-10-07T00:47:57.050Z,15.70
2018-10-07T00:50:30.889Z,15.70
2018-10-07T00:53:05.890Z,15.70
2018-10-07T00:55:39.339Z,15.70
2018-10-07T00:58:10.460Z,15.70
2018-10-07T01:00:51.490Z,15.70
2018-10-07T01:03:27.979Z,15.70
2018-10-07T09:08:12.038Z,16.00
2018-10-07T09:10:43.677Z,16.10
2018-10-07T09:13:14.868Z,16.10
2018-10-07T09:15:44.939Z,16.00
2018-10-07T09:18:16.449Z,16.00
2018-10-07T09:20:46.657Z,16.00
2018-10-07T09:23:16.967Z,16.00
2018-10-07T09:25:47.311Z,16.00
2018-10-07T09:28:21.309Z,16.00
2018-10-07T09:30:54.530Z,15.90
2018-10-07T09:33:26.748Z,15.90
2018-10-07T09:42:40.407Z,15.90
2018-10-07T09:45:12.908Z,16.00
2018-10-07T09:47:56.765Z,16.00
2018-10-07T09:50:29.169Z,16.00
2018-10-07T09:53:00.760Z,16.00
2018-10-07T09:55:34.678Z,16.00
2018-10-07T09:58:05.136Z,15.90
2018-10-07T10:00:40.378Z,15.90
2018-10-07T10:03:12.268Z,15.90
2018-10-07T10:05:44.919Z,15.90
2018-10-07T10:08:16.499Z,16.00
2018-10-07T10:10:48.558Z,16.00
2018-10-07T10:13:39.797Z,16.00
2018-10-07T10:16:35.849Z,16.00
2018-10-07T10:19:09.498Z,16.00
2018-10-07T10:31:09.879Z,16.10
2018-10-07T10:33:45.579Z,16.10
2018-10-07T10:36:26.359Z,16.20
2018-10-07T10:39:11.168Z,16.20
2018-10-07T10:41:49.578Z,16.20
2018-10-07T10:44:42.430Z,16.30
2018-10-07T10:47:49.948Z,16.30
2018-10-07T10:51:31.315Z,16.30
2018-10-07T10:54:11.867Z,16.30
2018-10-07T10:57:04.087Z,16.30
2018-10-07T10:59:52.065Z,16.30
2018-10-07T11:02:35.805Z,16.30
2018-10-07T11:05:21.005Z,16.30
2018-10-07T11:08:11.376Z,16.40
2018-10-07T11:10:51.196Z,16.40
2018-10-07T11:13:59.783Z,16.40
2018-10-07T11:18:43.687Z,16.50
2018-10-07T11:21:34.615Z,16.50
2018-10-07T11:24:22.386Z,16.60
2018-10-07T11:27:12.836Z,16.60
2018-10-07T11:30:22.955Z,16.70
2018-10-07T11:33:02.437Z,16.60
2018-10-07T11:35:42.040Z,16.70
2018-10-07T11:40:26.880Z,16.70
2018-10-07T11:43:39.451Z,16.70
2018-10-07T11:46:14.962Z,16.70
2018-10-07T11:49:21.321Z,16.70
2018-10-07T11:52:24.391Z,16.60
2018-10-07T11:55:13.121Z,16.60
2018-10-07T11:57:44.705Z,16.70
2018-10-07T12:00:16.210Z,16.70
2018-10-07T12:02:48.115Z,16.70
2018-10-07T12:05:19.340Z,16.70
2018-10-07T12:07:51.470Z,16.80
2018-10-07T12:10:43.080Z,16.80
2018-10-07T12:13:14.492Z,16.80
2018-10-07T12:15:46.401Z,16.80
2018-10-07T12:18:17.950Z,16.70
2018-10-07T12:20:50.040Z,16.80
2018-10-07T12:23:23.853Z,16.80
2018-10-07T12:25:55.290Z,16.80
2018-10-07T12:28:27.770Z,16.80
2018-10-07T12:30:59.530Z,16.80
2018-10-07T12:33:30.932Z,16.80
2018-10-07T12:36:02.740Z,16.70
2018-10-07T12:38:34.591Z,16.80
2018-10-07T12:41:05.959Z,16.70
2018-10-07T12:43:38.310Z,16.70
2018-10-07T12:46:10.421Z,16.70
2018-10-07T12:48:42.930Z,16.80
2018-10-07T12:51:14.221Z,16.80
2018-10-07T12:53:44.911Z,16.80
2018-10-07T12:56:16.631Z,16.80
2018-10-07T12:58:51.441Z,16.80
2018-10-07T13:01:23.880Z,16.80
2018-10-07T13:03:55.791Z,16.80
2018-10-07T13:06:27.510Z,16.80
2018-10-07T13:08:59.101Z,16.70
2018-10-07T13:11:31.144Z,16.80
2018-10-07T13:14:03.060Z,16.70
2018-10-07T13:16:34.450Z,16.70
2018-10-07T13:19:04.776Z,16.70
2018-10-07T13:21:37.420Z,16.70
2018-10-07T13:24:09.840Z,16.70
2018-10-07T13:26:41.080Z,16.70
2018-10-07T13:29:13.901Z,16.70
2018-10-07T13:31:45.340Z,16.70
2018-10-07T13:34:17.619Z,16.70
2018-10-07T13:36:49.470Z,16.70
2018-10-07T13:39:21.548Z,16.70
2018-10-07T13:41:51.579Z,16.70
2018-10-07T13:44:23.020Z,16.70
2018-10-07T13:46:54.880Z,16.70
2018-10-07T13:49:27.182Z,16.70
2018-10-07T13:52:00.150Z,16.60
2018-10-07T13:54:32.370Z,16.70
2018-10-07T13:57:04.100Z,16.70
2018-10-07T13:59:35.780Z,16.70
2018-10-07T14:02:07.390Z,16.60
2018-10-07T14:04:38.530Z,16.60
2018-10-07T14:07:09.719Z,16.70
2018-10-07T14:09:39.560Z,16.60
2018-10-07T14:12:09.420Z,16.60
2018-10-07T14:14:40.129Z,16.60
2018-10-07T14:17:10.800Z,16.60
2018-10-07T14:19:42.190Z,16.60
2018-10-07T14:22:14.891Z,16.70
2018-10-07T14:24:45.640Z,16.60
2018-10-07T14:27:16.785Z,16.70
2018-10-07T14:29:48.560Z,16.70
2018-10-07T14:32:19.920Z,16.60
2018-10-07T14:34:51.240Z,16.70
2018-10-07T14:37:22.554Z,16.70
2018-10-07T14:39:55.453Z,16.60
2018-10-07T14:42:25.482Z,16.60
2018-10-07T14:44:57.740Z,16.60
2018-10-07T14:47:29.409Z,16.60
2018-10-07T14:50:01.254Z,16.60
2018-10-07T14:52:34.230Z,16.60
2018-10-07T14:55:06.065Z,16.60
2018-10-07T14:57:37.480Z,16.60
2018-10-07T15:00:10.100Z,16.70
2018-10-07T15:02:41.390Z,16.60
2018-10-07T15:05:11.620Z,16.60
2018-10-07T15:07:41.780Z,16.60
2018-10-07T15:10:14.521Z,16.60
2018-10-07T15:12:45.972Z,16.60
2018-10-07T15:15:17.771Z,16.60
2018-10-07T15:17:49.129Z,16.50
2018-10-07T15:20:20.940Z,16.50
2018-10-07T15:22:52.520Z,16.50
2018-10-07T15:25:22.460Z,16.50
2018-10-07T15:27:55.015Z,16.50
2018-10-07T15:30:27.943Z,16.50
2018-10-07T15:32:58.951Z,16.50
2018-10-07T15:35:32.803Z,16.50
2018-10-07T15:38:04.051Z,16.50
2018-10-07T15:40:36.759Z,16.50
2018-10-07T15:43:08.239Z,16.40
2018-10-07T15:45:42.281Z,16.40
2018-10-07T15:48:21.562Z,16.40
2018-10-07T15:50:55.700Z,16.40
2018-10-07T15:53:30.768Z,16.30
2018-10-07T15:56:06.623Z,16.30
2018-10-07T15:58:42.695Z,16.30
2018-10-07T16:01:21.392Z,16.30
2018-10-07T16:03:54.789Z,16.30
2018-10-07T16:06:31.780Z,16.30
2018-10-07T16:09:08.660Z,16.30
2018-10-07T16:11:48.792Z,16.20
2018-10-07T16:14:24.500Z,16.20
2018-10-07T16:16:59.399Z,16.20
2018-10-07T16:19:35.693Z,16.20
2018-10-07T16:22:13.241Z,16.20
2018-10-07T16:24:46.210Z,16.20
2018-10-07T16:27:20.929Z,16.20
2018-10-07T16:30:00.080Z,16.20
2018-10-07T16:32:37.867Z,16.10
2018-10-07T16:35:13.840Z,16.10
2018-10-07T16:37:48.350Z,16.10
2018-10-07T16:40:18.981Z,16.10
2018-10-07T16:42:54.321Z,16.10
2018-10-07T16:45:28.863Z,16.10
2018-10-07T16:48:02.849Z,16.10
2018-10-07T16:50:37.900Z,16.10
2018-10-07T16:53:11.921Z,16.10
2018-10-07T16:55:46.270Z,16.00
2018-10-07T16:58:19.329Z,16.10
2018-10-07T17:00:53.280Z,16.10
2018-10-07T17:03:28.412Z,16.10
2018-10-07T17:06:02.174Z,16.10
2018-10-07T17:08:36.789Z,16.00
2018-10-07T17:11:11.424Z,16.00
2018-10-07T17:13:44.649Z,16.00
2018-10-07T17:16:20.819Z,16.00
2018-10-07T17:18:56.960Z,15.90
2018-10-07T17:21:30.964Z,15.90
2018-10-07T17:24:05.080Z,15.90
2018-10-07T17:26:39.299Z,15.90
2018-10-07T17:29:14.139Z,15.90
2018-10-07T17:31:46.550Z,15.90
2018-10-07T17:34:20.632Z,15.80
2018-10-07T17:36:56.114Z,15.80
2018-10-07T17:39:29.371Z,15.80
2018-10-07T17:42:03.330Z,15.80
2018-10-07T17:44:35.820Z,15.80
2018-10-07T17:47:11.330Z,15.80
2018-10-07T17:49:44.139Z,15.80
2018-10-07T17:52:20.600Z,15.90
2018-10-07T17:54:56.792Z,15.90
2018-10-07T17:57:30.861Z,15.90
2018-10-07T18:00:04.711Z,15.80
2018-10-07T18:02:38.473Z,15.80
2018-10-07T18:05:09.451Z,15.80
2018-10-07T18:07:42.339Z,15.80
2018-10-07T18:10:21.840Z,15.80
2018-10-07T18:12:56.830Z,15.80
2018-10-07T18:15:36.240Z,15.80
2018-10-07T18:18:14.590Z,15.90
2018-10-07T18:20:56.460Z,15.80
2018-10-07T18:23:39.570Z,15.80
2018-10-07T18:26:17.210Z,15.80
2018-10-07T18:28:53.870Z,15.80
2018-10-07T18:31:30.401Z,15.80
2018-10-07T18:34:13.042Z,15.80
2018-10-07T18:36:52.210Z,15.80
2018-10-07T18:39:26.980Z,15.80
2018-10-07T18:42:14.120Z,15.80
2018-10-07T18:44:57.536Z,15.80
2018-10-07T18:47:48.209Z,15.80
2018-10-07T18:50:38.740Z,15.80
2018-10-07T18:56:08.614Z,15.80
2018-10-07T18:58:48.480Z,15.80
2018-10-07T19:01:29.169Z,15.80
2018-10-07T19:04:09.008Z,15.80
2018-10-07T19:06:46.730Z,15.80
2018-10-07T19:09:24.449Z,15.80
2018-10-07T19:11:58.511Z,15.80
2018-10-07T19:14:32.428Z,15.80
2018-10-07T19:17:06.033Z,15.80
2018-10-07T19:19:38.030Z,15.80
2018-10-07T19:22:08.893Z,15.70
2018-10-07T19:24:40.270Z,15.70
2018-10-07T19:27:11.220Z,15.70
2018-10-07T19:29:42.297Z,15.70
2018-10-07T19:32:12.880Z,15.70
2018-10-07T19:34:44.740Z,15.80
2018-10-07T19:37:16.091Z,15.70
2018-10-07T19:39:47.584Z,15.70
2018-10-07T19:42:19.360Z,15.80
2018-10-07T19:44:50.665Z,15.70
2018-10-07T19:47:22.432Z,15.70
2018-10-07T19:49:57.901Z,15.70
2018-10-07T19:52:33.192Z,15.70
2018-10-07T19:55:11.366Z,15.60
2018-10-07T19:57:50.392Z,15.60
2018-10-07T20:00:39.238Z,15.60
2018-10-07T20:03:16.579Z,15.60
2018-10-07T20:05:53.549Z,15.60
2018-10-07T20:08:31.260Z,15.70
2018-10-07T20:11:09.509Z,15.70
2018-10-07T20:13:46.500Z,15.60
2018-10-07T20:16:19.510Z,15.70
2018-10-07T20:18:58.140Z,15.70
2018-10-07T20:21:35.331Z,15.70
2018-10-07T20:24:10.212Z,15.60
2018-10-07T20:26:43.453Z,15.60
2018-10-07T20:29:19.515Z,15.60
2018-10-07T20:31:59.241Z,15.60
2018-10-07T20:34:38.798Z,15.60
2018-10-07T20:37:15.870Z,15.60
2018-10-07T20:39:51.793Z,15.60
2018-10-07T20:42:26.882Z,15.60
2018-10-07T20:45:00.741Z,15.60
2018-10-07T20:47:35.150Z,15.60
2018-10-07T20:50:08.990Z,15.60
2018-10-07T20:52:44.020Z,15.60
2018-10-07T20:55:22.281Z,15.60
2018-10-07T20:57:59.030Z,15.60
2018-10-07T21:00:33.829Z,15.60
2018-10-07T21:03:07.974Z,15.50
2018-10-07T21:05:42.720Z,15.50
2018-10-07T21:08:20.749Z,15.50
2018-10-07T21:10:55.424Z,15.50
2018-10-07T21:13:29.625Z,15.50
2018-10-07T21:16:04.640Z,15.50
2018-10-07T21:18:41.890Z,15.50
2018-10-07T21:21:16.689Z,15.50
2018-10-07T21:23:51.413Z,15.50
2018-10-07T21:26:25.980Z,15.50
2018-10-07T21:28:57.540Z,15.50
2018-10-07T21:31:38.490Z,15.50
2018-10-07T21:34:14.903Z,15.50
2018-10-07T21:36:50.081Z,15.50
2018-10-07T21:39:24.031Z,15.50
2018-10-07T21:41:58.479Z,15.50
2018-10-07T21:44:36.280Z,15.50
2018-10-07T21:47:14.392Z,15.50
2018-10-07T21:49:45.849Z,15.50
2018-10-07T21:52:17.657Z,15.50
2018-10-07T21:54:49.221Z,15.50
2018-10-07T21:57:20.526Z,15.50
2018-10-07T21:59:51.102Z,15.50
2018-10-07T22:02:22.450Z,15.50
2018-10-07T22:04:54.619Z,15.50
2018-10-07T22:07:25.890Z,15.40
2018-10-07T22:09:57.634Z,15.40
2018-10-07T22:12:29.103Z,15.40
2018-10-07T22:14:59.880Z,15.40
2018-10-07T22:17:31.389Z,15.40
2018-10-07T22:20:04.550Z,15.40
2018-10-07T22:22:35.760Z,15.40
2018-10-07T22:25:07.230Z,15.40
2018-10-07T22:27:38.990Z,15.40
2018-10-07T22:30:10.220Z,15.40
2018-10-07T22:32:42.820Z,15.40
2018-10-07T22:35:14.549Z,15.40
2018-10-07T22:37:45.220Z,15.40
2018-10-07T22:40:18.690Z,15.40
2018-10-07T22:42:50.360Z,15.40
2018-10-07T22:45:22.052Z,15.40
2018-10-07T22:47:53.270Z,15.40
2018-10-07T22:50:24.349Z,15.40
2018-10-07T22:52:55.130Z,15.40
2018-10-07T22:55:26.680Z,15.40
2018-10-07T22:57:58.230Z,15.40
2018-10-07T23:00:30.163Z,15.40
2018-10-07T23:03:01.230Z,15.40
2018-10-07T23:05:32.780Z,15.40
2018-10-07T23:08:03.959Z,15.40
2018-10-07T23:10:36.419Z,15.30
2018-10-07T23:13:08.230Z,15.30
2018-10-07T23:15:39.441Z,15.30
2018-10-07T23:18:11.399Z,15.40
2018-10-07T23:20:42.699Z,15.40
2018-10-07T23:23:15.530Z,15.40
2018-10-07T23:25:46.090Z,15.40
2018-10-07T23:28:17.379Z,15.40
2018-10-07T23:30:48.590Z,15.50
2018-10-07T23:33:18.940Z,15.40
2018-10-07T23:35:50.620Z,15.40
2018-10-07T23:38:22.189Z,15.40
2018-10-07T23:40:56.093Z,15.40
2018-10-07T23:43:26.920Z,15.40
2018-10-07T23:45:57.750Z,15.40
2018-10-07T23:48:28.230Z,15.40
2018-10-07T23:51:01.641Z,15.40
2018-10-07T23:53:33.300Z,15.40
2018-10-07T23:56:04.580Z,15.30
2018-10-07T23:58:35.179Z,15.30
